Time;durP1;ratioP1;P1;durP2;ratioP2;P2;SDS_P1;SDS_P2;PMS_P1;PMS_P2;Temp;Humidity;BMP_temperature;BMP_pressure;BME280_temperature;BME280_humidity;BME280_pressure;Samples;Min_cycle;Max_cycle;Signal;HPM_P1;HPM_P2
2023/04/02 00:01:04;;;;;;;8.73;3.63;;;;;;;2.35;100.00;100526.66;4894267;29;20044;-89
2023/04/02 00:03:58;;;;;;;7.82;3.72;;;;;;;2.35;100.00;100524.97;4877542;29;20131;-88
2023/04/02 00:06:29;;;;;;;6.93;2.67;;;;;;;2.38;100.00;100527.63;4875613;29;20052;-89
2023/04/02 00:09:01;;;;;;;5.53;3.03;;;;;;;2.36;100.00;100536.16;4909908;29;20542;-87
2023/04/02 00:11:36;;;;;;;7.85;3.10;;;;;;;2.37;100.00;100549.13;4897452;29;20058;-89
2023/04/02 00:14:16;;;;;;;4.47;2.83;;;;;;;2.44;100.00;100550.16;4898022;29;20060;-90
2023/04/02 00:16:44;;;;;;;4.32;3.05;;;;;;;2.41;100.00;100556.13;4900354;29;20147;-89
2023/04/02 00:19:49;;;;;;;5.28;2.70;;;;;;;2.34;100.00;100558.53;4913532;29;20050;-87
2023/04/02 00:22:30;;;;;;;6.32;2.88;;;;;;;2.27;100.00;100560.09;4880951;29;20060;-88
2023/04/02 00:24:57;;;;;;;6.70;3.30;;;;;;;2.21;100.00;100565.13;4900111;29;20184;-89
2023/04/02 00:27:24;;;;;;;4.70;3.20;;;;;;;2.19;100.00;100569.34;4894680;29;20048;-89
2023/04/02 00:30:00;;;;;;;4.97;2.95;;;;;;;2.18;100.00;100578.84;4884693;29;20141;-89
2023/04/02 00:32:36;;;;;;;6.95;2.60;;;;;;;2.13;100.00;100575.25;4903767;29;20052;-89
2023/04/02 00:35:16;;;;;;;10.82;2.83;;;;;;;2.10;100.00;100585.50;4890092;29;20522;-89
2023/04/02 00:37:46;;;;;;;3.65;2.63;;;;;;;2.11;100.00;100595.00;4889720;29;20041;-90
2023/04/02 00:40:32;;;;;;;7.47;2.38;;;;;;;2.10;100.00;100596.72;4899855;29;20112;-89
2023/04/02 00:43:06;;;;;;;5.07;2.22;;;;;;;2.09;100.00;100602.72;4898971;29;20264;-88
2023/04/02 00:45:40;;;;;;;3.45;1.70;;;;;;;2.07;100.00;100606.94;4913200;29;20351;-89
2023/04/02 00:48:27;;;;;;;4.80;2.45;;;;;;;2.12;100.00;100605.34;4890606;29;20083;-89
2023/04/02 00:50:55;;;;;;;2.55;2.05;;;;;;;2.03;100.00;100612.03;4886969;29;20139;-87
2023/04/02 00:53:29;;;;;;;6.43;2.28;;;;;;;2.02;100.00;100616.31;4891944;29;20060;-89
2023/04/02 00:56:11;;;;;;;;;;;;;;;;;;;;;
2023/04/02 00:58:42;;;;;;;;;;;;;;;1.98;100.00;100625.69;4905021;29;20669;-87
2023/04/02 01:01:23;;;;;;;4.68;2.75;;;;;;;1.95;100.00;100630.75;4901100;29;19973;-88
2023/04/02 01:04:00;;;;;;;5.15;3.05;;;;;;;1.90;100.00;100637.50;4882671;29;20048;-87
2023/04/02 01:06:39;;;;;;;5.35;2.55;;;;;;;1.88;100.00;100635.72;4885360;29;20542;-87
2023/04/02 01:09:32;;;;;;;5.97;2.55;;;;;;;1.92;100.00;100642.72;4899234;29;20056;-87
2023/04/02 01:12:53;;;;;;;4.28;2.22;;;;;;;1.92;100.00;100638.44;4903070;29;20053;-88
2023/04/02 01:15:37;;;;;;;6.28;2.40;;;;;;;1.93;100.00;100644.47;4882364;29;20051;-87
2023/04/02 01:18:35;;;;;;;3.60;1.60;;;;;;;1.94;100.00;100644.53;4898722;29;20048;-87
2023/04/02 01:21:42;;;;;;;4.72;2.85;;;;;;;1.94;100.00;100652.25;4894727;29;20051;-88
2023/04/02 01:24:13;;;;;;;6.05;4.75;;;;;;;1.94;100.00;100652.25;4878207;29;20056;-89
2023/04/02 01:26:53;;;;;;;5.93;1.83;;;;;;;1.96;100.00;100652.31;4883816;29;20056;-87
2023/04/02 01:29:25;;;;;;;4.15;2.05;;;;;;;1.94;100.00;100661.69;4901047;29;20048;-88
2023/04/02 01:32:03;;;;;;;7.10;2.22;;;;;;;1.94;100.00;100665.19;4898477;29;20046;-86
2023/04/02 01:34:31;;;;;;;3.58;1.92;;;;;;;1.96;100.00;100676.41;4876419;29;20076;-87
2023/04/02 01:37:22;;;;;;;3.40;2.22;;;;;;;1.93;100.00;100683.19;4896458;29;20056;-89
2023/04/02 01:40:31;;;;;;;4.22;1.75;;;;;;;1.93;100.00;100688.34;4910328;29;20044;-87
2023/04/02 01:43:13;;;;;;;5.13;1.63;;;;;;;1.92;100.00;100690.06;4891701;29;20054;-87
2023/04/02 01:45:43;;;;;;;2.88;1.83;;;;;;;1.92;100.00;100700.38;4890681;29;20044;-89
2023/04/02 01:48:23;;;;;;;5.88;1.60;;;;;;;1.91;100.00;100703.78;4899504;29;20060;-87
2023/04/02 01:50:54;;;;;;;4.65;2.40;;;;;;;1.89;100.00;100702.00;4896425;29;20040;-88
2023/04/02 01:53:23;;;;;;;6.60;1.73;;;;;;;1.89;100.00;100723.56;4892511;29;20479;-89
2023/04/02 01:55:58;;;;;;;3.53;2.60;;;;;;;1.87;100.00;100720.03;4897472;29;20083;-89
2023/04/02 01:58:30;;;;;;;4.00;1.88;;;;;;;1.82;100.00;100719.03;4881137;29;20491;-87
2023/04/02 02:01:08;;;;;;;8.45;1.95;;;;;;;1.79;100.00;100730.16;4881693;29;20059;-86
2023/04/02 02:03:39;;;;;;;6.72;1.95;;;;;;;1.81;100.00;100733.66;4897852;29;20044;-86
2023/04/02 02:06:07;;;;;;;4.00;1.50;;;;;;;1.90;100.00;100740.75;4878572;29;20062;-89
2023/04/02 02:08:47;;;;;;;5.35;1.67;;;;;;;1.90;100.00;100747.66;4909300;29;20036;-87
2023/04/02 02:11:20;;;;;;;9.95;1.98;;;;;;;1.87;100.00;100739.84;4906735;29;20113;-86
2023/04/02 02:14:14;;;;;;;6.25;1.27;;;;;;;1.83;100.00;100758.66;4891024;29;20083;-87
2023/04/02 02:16:41;;;;;;;5.25;1.63;;;;;;;1.80;100.00;100757.72;4876066;29;20057;-88
2023/04/02 02:19:27;;;;;;;4.63;2.17;;;;;;;1.78;100.00;100759.38;4892627;29;20154;-87
2023/04/02 02:22:30;;;;;;;8.57;2.03;;;;;;;1.79;100.00;100761.13;4877617;29;20760;-88
2023/04/02 02:25:01;;;;;;;2.05;1.65;;;;;;;1.77;100.00;100779.97;4889789;29;20053;-89
2023/04/02 02:27:27;;;;;;;4.95;1.75;;;;;;;1.74;100.00;100775.59;4873690;29;20425;-87
2023/04/02 02:30:06;;;;;;;4.05;1.70;;;;;;;1.74;100.00;100783.34;4905267;29;20140;-89
2023/04/02 02:32:35;;;;;;;5.82;1.30;;;;;;;1.70;100.00;100778.94;4905306;29;20593;-89
2023/04/02 02:35:22;;;;;;;1.48;1.13;;;;;;;1.67;100.00;100790.84;4893560;29;20059;-87
2023/04/02 02:38:22;;;;;;;2.25;1.20;;;;;;;1.65;100.00;100795.97;4879371;29;20080;-88
2023/04/02 02:40:54;;;;;;;7.25;1.35;;;;;;;1.65;100.00;100798.56;4889849;29;20064;-89
2023/04/02 02:43:21;;;;;;;2.40;1.30;;;;;;;1.67;100.00;100801.19;4886435;29;20048;-88
2023/04/02 02:45:49;;;;;;;1.30;0.60;;;;;;;1.66;100.00;100808.06;4882046;29;20056;-89
2023/04/02 02:48:20;;;;;;;2.08;1.10;;;;;;;1.64;100.00;100814.88;4890972;29;20065;-88
2023/04/02 02:50:48;;;;;;;1.33;0.73;;;;;;;1.65;100.00;100814.91;4897739;29;20481;-88
2023/04/02 02:53:26;;;;;;;4.15;1.73;;;;;;;1.67;100.00;100817.56;4892058;29;20052;-88
2023/04/02 02:55:58;;;;;;;3.83;1.20;;;;;;;1.70;100.00;100835.72;4879632;29;20159;-89
2023/04/02 02:58:32;;;;;;;3.13;1.23;;;;;;;1.69;100.00;100827.94;4881399;29;21637;-89
2023/04/02 03:01:03;;;;;;;3.15;1.30;;;;;;;1.68;100.00;100833.91;4890270;29;20052;-87
2023/04/02 03:03:34;;;;;;;5.43;1.67;;;;;;;1.66;100.00;100839.03;4891386;29;20052;-87
2023/04/02 03:06:06;;;;;;;3.17;1.38;;;;;;;1.66;100.00;100844.19;4895086;29;20045;-87
2023/04/02 03:08:41;;;;;;;2.92;1.50;;;;;;;1.66;100.00;100844.19;4896988;29;20067;-87
2023/04/02 03:11:40;;;;;;;5.53;1.02;;;;;;;1.65;98.63;100857.91;4895415;29;20060;-87
2023/04/02 03:14:35;;;;;;;2.00;0.80;;;;;;;1.63;99.14;100856.97;4874919;29;20060;-87
2023/04/02 03:17:15;;;;;;;;;;;;;;;1.62;98.19;100870.72;4882213;29;20056;-87
2023/04/02 03:19:52;;;;;;;1.30;0.88;;;;;;;1.63;98.71;100869.88;4894166;29;19931;-87
2023/04/02 03:22:34;;;;;;;4.75;1.00;;;;;;;1.64;98.88;100879.38;4880646;29;20403;-87
2023/04/02 03:25:18;;;;;;;3.67;1.63;;;;;;;1.64;98.84;100875.13;4896330;29;20089;-88
2023/04/02 03:27:49;;;;;;;3.05;1.25;;;;;;;1.66;97.75;100885.47;4913252;29;20060;-89
2023/04/02 03:31:01;;;;;;;1.48;0.73;;;;;;;1.63;96.90;100886.25;4884060;29;20393;-87
2023/04/02 03:33:33;;;;;;;3.38;0.80;;;;;;;1.63;97.03;100896.59;4879694;29;20064;-86
2023/04/02 03:36:55;;;;;;;2.85;1.60;;;;;;;1.63;96.89;100894.00;4909721;29;20044;-86
2023/04/02 03:39:37;;;;;;;2.00;1.42;;;;;;;1.62;96.95;100909.44;4879633;29;20046;-87
2023/04/02 03:42:26;;;;;;;2.67;1.08;;;;;;;1.62;96.06;100912.03;4880928;29;20053;-86
2023/04/02 03:45:06;;;;;;;1.90;1.00;;;;;;;1.64;95.63;100918.97;4877797;29;20124;-88
2023/04/02 03:47:47;;;;;;;2.45;1.17;;;;;;;1.64;95.81;100929.31;4899287;29;20054;-87
2023/04/02 03:50:25;;;;;;;3.80;1.65;;;;;;;1.64;95.33;100931.00;4883793;29;20037;-88
2023/04/02 03:52:52;;;;;;;2.63;1.00;;;;;;;1.64;95.62;100933.56;4881707;29;20051;-88
2023/04/02 03:55:36;;;;;;;2.65;1.95;;;;;;;1.65;95.28;100935.34;4896205;29;20099;-88
2023/04/02 03:58:21;;;;;;;6.03;1.10;;;;;;;1.65;95.51;100935.34;4880141;29;20052;-89
2023/04/02 04:01:26;;;;;;;3.65;1.77;;;;;;;1.67;95.15;100950.84;4891789;29;20046;-89
2023/04/02 04:04:01;;;;;;;;;;;;;;;1.69;93.65;100955.25;4833687;29;20053;-88
2023/04/02 04:06:40;;;;;;;4.78;1.10;;;;;;;1.65;93.73;100971.47;4888758;29;19931;-89
2023/04/02 04:09:20;;;;;;;3.33;0.90;;;;;;;1.66;93.01;100960.31;4908068;29;20044;-89
2023/04/02 04:12:11;;;;;;;5.15;1.15;;;;;;;1.70;92.93;100967.31;4875330;29;20064;-87
2023/04/02 04:14:46;;;;;;;1.80;0.80;;;;;;;1.64;92.90;100975.75;4880828;29;20476;-87
2023/04/02 04:17:50;;;;;;;5.93;1.38;;;;;;;1.66;93.55;100983.53;4895059;29;20068;-88
2023/04/02 04:20:33;;;;;;;2.50;1.33;;;;;;;1.65;92.95;100987.81;4877208;29;20065;-88
2023/04/02 04:23:34;;;;;;;3.13;1.58;;;;;;;1.64;91.82;100990.34;4889262;29;20058;-86
2023/04/02 04:26:52;;;;;;;1.60;0.70;;;;;;;1.61;92.48;101004.03;4891886;29;20049;-87
2023/04/02 04:29:59;;;;;;;1.75;0.90;;;;;;;1.62;92.13;100999.75;4879158;29;20063;-89
2023/04/02 04:32:33;;;;;;;1.02;0.70;;;;;;;1.64;91.48;101011.00;4876774;29;20080;-86
2023/04/02 04:35:16;;;;;;;1.75;0.70;;;;;;;1.64;91.00;101011.88;4891849;29;20044;-88
2023/04/02 04:37:48;;;;;;;2.95;1.02;;;;;;;1.66;90.40;101014.50;4893604;29;20095;-88
2023/04/02 04:40:27;;;;;;;0.60;0.50;;;;;;;1.64;91.02;101018.72;4889067;29;20053;-88
2023/04/02 04:42:59;;;;;;;1.48;0.85;;;;;;;1.64;90.67;101019.63;4875423;29;20499;-87
2023/04/02 04:45:37;;;;;;;4.88;0.75;;;;;;;1.64;90.75;101024.78;4904758;29;20060;-89
2023/04/02 04:48:10;;;;;;;1.30;0.70;;;;;;;1.65;90.67;101035.97;4891896;29;20056;-87
2023/04/02 04:50:50;;;;;;;3.55;1.02;;;;;;;1.64;90.60;101042.84;4878551;29;20049;-88
2023/04/02 04:53:22;;;;;;;2.72;1.23;;;;;;;1.67;89.63;101047.25;4877379;29;20059;-87
2023/04/02 04:55:54;;;;;;;2.20;1.17;;;;;;;1.65;89.60;101051.47;4892905;29;20127;-86
2023/04/02 05:02:47;;;;;;;1.73;0.80;;;;;;;1.66;89.62;101068.72;4893855;29;20534;-87
2023/04/02 05:05:58;;;;;;;4.22;1.10;;;;;;;1.64;89.51;101076.41;4873821;29;20063;-86
2023/04/02 05:09:02;;;;;;;;;;;;;;;;;;;;;
2023/04/02 05:12:52;;;;;;;3.38;1.25;;;;;;;1.72;90.17;101087.00;4892735;29;20067;-88
2023/04/02 05:26:32;;;;;;;7.18;1.40;;;;;;;1.80;87.31;101123.41;4809181;29;20493;-87
2023/04/02 05:29:14;;;;;;;2.42;0.80;;;;;;;1.78;87.10;101125.91;4846712;29;20056;-86
2023/04/02 05:32:11;;;;;;;1.67;0.80;;;;;;;1.76;86.53;101124.09;4892613;29;20072;-88
2023/04/02 05:34:40;;;;;;;2.13;0.43;;;;;;;1.77;87.18;101131.00;4900702;29;20670;-86
2023/04/02 05:37:17;;;;;;;2.42;0.70;;;;;;;1.81;85.36;101136.34;4873294;29;20457;-88
2023/04/02 05:39:52;;;;;;;2.78;0.75;;;;;;;1.81;85.26;101141.50;4891180;29;20057;-88
2023/04/02 05:42:24;;;;;;;1.23;0.63;;;;;;;1.83;85.22;101143.28;4875709;29;20048;-86
2023/04/02 05:45:21;;;;;;;7.88;1.42;;;;;;;1.85;84.77;101157.97;4903661;29;20071;-86
2023/04/02 05:47:52;;;;;;;3.83;1.52;;;;;;;1.86;85.39;101153.69;4886601;29;20060;-86
2023/04/02 05:50:29;;;;;;;2.88;0.68;;;;;;;1.88;84.54;101158.09;4872864;29;20056;-86
2023/04/02 05:53:22;;;;;;;3.03;1.52;;;;;;;1.86;84.81;101170.03;4881745;29;20052;-86
2023/04/02 05:56:06;;;;;;;1.30;0.90;;;;;;;1.86;84.73;101164.88;4867322;29;20037;-85
2023/04/02 05:59:18;;;;;;;1.77;0.50;;;;;;;1.88;84.59;101173.56;4858890;29;20476;-85
2023/04/02 06:01:57;;;;;;;2.95;1.92;;;;;;;1.91;85.35;101180.56;4857189;29;20056;-84
2023/04/02 06:04:40;;;;;;;0.75;0.43;;;;;;;1.98;85.25;101180.81;4871423;29;20057;-84
2023/04/02 06:07:24;;;;;;;0.77;0.55;;;;;;;2.05;83.83;101192.22;4857253;29;20089;-84
2023/04/02 06:09:57;;;;;;;0.60;0.50;;;;;;;2.08;83.57;101191.47;4873680;29;20067;-86
2023/04/02 06:12:28;;;;;;;1.85;0.70;;;;;;;2.09;83.16;101198.38;4858687;29;20074;-86
2023/04/02 06:14:55;;;;;;;1.75;0.52;;;;;;;2.09;82.13;101198.38;4855654;29;20057;-86
2023/04/02 06:17:22;;;;;;;0.60;0.57;;;;;;;2.10;82.47;101205.28;4871659;29;20068;-85
2023/04/02 06:19:55;;;;;;;1.38;0.38;;;;;;;2.11;83.34;101207.06;4877373;29;20054;-86
2023/04/02 06:22:35;;;;;;;1.70;0.68;;;;;;;2.18;84.83;101218.47;4874217;29;20090;-86
2023/04/02 06:25:20;;;;;;;1.58;0.68;;;;;;;2.24;83.13;101222.16;4868099;29;20185;-86
2023/04/02 06:27:48;;;;;;;;;;;;;;;2.27;82.87;101226.56;4869503;29;20037;-84
2023/04/02 06:30:26;;;;;;;3.50;0.70;;;;;;;2.26;82.98;101236.00;4886940;29;19931;-84
2023/04/02 06:32:53;;;;;;;2.70;0.88;;;;;;;2.28;83.53;101242.09;4875942;29;20519;-86
2023/04/02 06:35:21;;;;;;;1.15;0.80;;;;;;;2.31;82.55;101255.13;4890949;29;20301;-85
2023/04/02 06:37:53;;;;;;;1.02;0.68;;;;;;;2.30;81.63;101250.78;4887166;29;20048;-86
2023/04/02 06:40:46;;;;;;;2.10;0.65;;;;;;;2.35;81.65;101260.38;4891442;29;20072;-85
2023/04/02 06:43:38;;;;;;;6.60;0.82;;;;;;;2.36;81.56;101262.16;4875251;29;20040;-88
2023/04/02 06:46:42;;;;;;;1.58;0.63;;;;;;;2.34;82.32;101267.25;4901722;29;20048;-85
2023/04/02 06:49:38;;;;;;;0.60;0.60;;;;;;;2.40;82.79;101264.91;4881068;29;20052;-87
2023/04/02 06:52:15;;;;;;;5.18;0.65;;;;;;;2.48;82.50;101267.75;4868412;29;20529;-83
2023/04/02 06:54:41;;;;;;;1.65;1.20;;;;;;;2.56;81.29;101275.75;4875238;29;20152;-84
2023/04/02 06:57:10;;;;;;;0.98;0.63;;;;;;;2.51;81.99;101274.72;4884322;29;20496;-86
2023/04/02 06:59:37;;;;;;;0.75;0.43;;;;;;;2.52;81.71;101285.09;4888521;29;21179;-85
2023/04/02 07:02:24;;;;;;;4.22;0.63;;;;;;;2.53;82.04;101291.16;4887602;29;20072;-85
2023/04/02 07:04:52;;;;;;;2.35;0.98;;;;;;;2.50;82.58;101298.81;4903465;29;20112;-84
2023/04/02 07:07:18;;;;;;;0.70;0.70;;;;;;;2.50;82.88;101303.97;4888654;29;20528;-86
2023/04/02 07:09:46;;;;;;;2.85;1.20;;;;;;;2.53;82.51;101302.38;4873115;29;20053;-85
2023/04/02 07:12:17;;;;;;;2.83;0.57;;;;;;;2.58;81.99;101299.94;4891133;29;20043;-87
2023/04/02 07:14:46;;;;;;;1.40;0.80;;;;;;;2.58;81.91;101311.19;4876087;29;20041;-84
2023/04/02 07:17:18;;;;;;;5.20;0.88;;;;;;;2.64;82.34;101331.19;4876487;29;20455;-87
2023/04/02 07:19:48;;;;;;;1.30;1.05;;;;;;;2.68;82.14;101309.78;4886234;29;20508;-85
2023/04/02 07:22:19;;;;;;;1.17;0.65;;;;;;;2.73;81.50;101321.16;4890232;29;20073;-86
2023/04/02 07:24:46;;;;;;;2.85;0.77;;;;;;;2.71;81.85;101334.84;4902647;29;20123;-86
2023/04/02 07:27:14;;;;;;;4.25;1.42;;;;;;;2.78;82.24;101336.81;4891119;29;20048;-86
2023/04/02 07:29:42;;;;;;;2.58;0.70;;;;;;;2.86;82.31;101335.38;4874638;29;20386;-85
2023/04/02 07:32:13;;;;;;;3.08;1.30;;;;;;;2.93;82.07;101344.19;4875168;29;20056;-86
2023/04/02 07:34:41;;;;;;;0.82;0.52;;;;;;;2.96;81.90;101350.38;4887287;29;20047;-85
2023/04/02 07:37:11;;;;;;;1.98;0.80;;;;;;;2.95;81.69;101352.91;4889630;29;20131;-85
2023/04/02 07:39:37;;;;;;;1.10;0.57;;;;;;;2.95;82.21;101350.31;4889311;29;20052;-87
2023/04/02 07:42:04;;;;;;;2.28;1.08;;;;;;;3.01;81.45;101355.69;4887564;29;20136;-86
2023/04/02 07:44:31;;;;;;;2.67;0.70;;;;;;;2.98;80.86;101353.88;4874683;29;20044;-86
2023/04/02 07:46:57;;;;;;;3.85;1.00;;;;;;;2.97;81.01;101361.59;4876666;29;20059;-84
2023/04/02 07:49:24;;;;;;;5.65;2.20;;;;;;;2.97;80.76;101370.25;4874295;29;20554;-84
2023/04/02 07:51:54;;;;;;;4.55;0.60;;;;;;;2.97;80.69;101383.16;4871548;29;20427;-86
2023/04/02 07:54:21;;;;;;;1.13;0.80;;;;;;;3.01;80.77;101388.44;4874814;29;20059;-84
2023/04/02 07:56:47;;;;;;;0.65;0.50;;;;;;;3.05;81.11;101385.13;4889767;29;20052;-86
2023/04/02 07:59:14;;;;;;;2.20;1.17;;;;;;;3.13;81.82;101388.88;4877465;29;20071;-85
2023/04/02 08:01:41;;;;;;;2.25;0.88;;;;;;;3.25;81.83;101396.16;4884947;29;20044;-85
2023/04/02 08:04:20;;;;;;;0.88;0.73;;;;;;;3.36;81.75;101399.06;4888359;29;20060;-86
2023/04/02 08:06:47;;;;;;;2.92;1.10;;;;;;;3.41;80.92;101402.69;4874270;29;20180;-86
2023/04/02 08:09:17;;;;;;;2.72;0.80;;;;;;;3.42;80.15;101405.31;4869893;29;20044;-86
2023/04/02 08:11:45;;;;;;;2.72;0.90;;;;;;;3.38;80.07;101408.66;4891324;29;20049;-86
2023/04/02 08:14:12;;;;;;;2.38;0.50;;;;;;;3.42;79.93;101420.84;4873637;29;20053;-85
2023/04/02 08:16:54;;;;;;;3.20;1.10;;;;;;;3.47;79.46;101423.59;4874100;29;20118;-83
2023/04/02 08:19:21;;;;;;;1.23;1.13;;;;;;;3.37;78.73;101434.50;4868951;29;20072;-84
2023/04/02 08:21:51;;;;;;;1.25;0.40;;;;;;;3.26;79.46;101437.59;4855484;29;20175;-83
2023/04/02 08:24:18;;;;;;;2.78;0.80;;;;;;;3.28;79.77;101442.81;4857253;29;20559;-85
2023/04/02 08:26:47;;;;;;;2.80;0.65;;;;;;;3.29;79.48;101442.84;4856916;29;20184;-86
2023/04/02 08:29:13;;;;;;;1.73;0.95;;;;;;;3.28;80.45;101442.81;4857048;29;20577;-83
2023/04/02 08:31:40;;;;;;;2.35;0.60;;;;;;;3.37;80.73;101453.47;4856023;29;20053;-85
2023/04/02 08:34:07;;;;;;;2.60;0.57;;;;;;;3.41;79.89;101450.16;4869527;29;20061;-85
2023/04/02 08:36:37;;;;;;;4.80;0.82;;;;;;;3.45;79.77;101458.91;4870982;29;20049;-84
2023/04/02 08:39:09;;;;;;;2.38;0.60;;;;;;;3.54;79.86;101461.78;4854911;29;20056;-86
2023/04/02 08:41:44;;;;;;;1.25;0.50;;;;;;;3.56;78.92;101461.84;4871848;29;20055;-84
2023/04/02 08:44:43;;;;;;;1.85;0.60;;;;;;;3.46;78.71;101473.63;4883094;29;20053;-85
2023/04/02 08:47:13;;;;;;;2.47;0.65;;;;;;;3.42;78.83;101474.34;4869735;29;20053;-84
2023/04/02 08:50:01;;;;;;;1.45;0.30;;;;;;;3.40;79.49;101470.81;4854501;29;20139;-83
2023/04/02 08:52:35;;;;;;;5.60;1.75;;;;;;;3.45;79.28;101485.66;4884728;29;20053;-84
2023/04/02 08:55:04;;;;;;;0.82;0.60;;;;;;;3.39;78.90;101489.75;4859455;29;20349;-85
2023/04/02 08:57:54;;;;;;;1.73;0.52;;;;;;;3.44;78.81;101495.97;4869458;29;20060;-84
2023/04/02 09:00:37;;;;;;;1.23;0.65;;;;;;;3.47;79.02;101493.50;4884558;29;20120;-84
2023/04/02 09:03:21;;;;;;;2.08;1.05;;;;;;;3.58;79.42;101493.84;4871293;29;20061;-83
2023/04/02 09:05:50;;;;;;;1.63;1.00;;;;;;;3.73;78.70;101496.03;4856963;29;20298;-83
2023/04/02 09:08:23;;;;;;;0.68;0.60;;;;;;;3.77;77.88;101492.75;4868699;29;20049;-86
2023/04/02 09:11:06;;;;;;;1.40;0.47;;;;;;;3.77;78.18;101505.72;4869054;29;20064;-84
2023/04/02 09:13:37;;;;;;;2.85;1.15;;;;;;;3.74;77.43;101528.88;4851606;29;20072;-87
2023/04/02 09:16:11;;;;;;;1.30;0.73;;;;;;;3.74;76.70;101523.72;4878638;29;20076;-86
2023/04/02 09:18:38;;;;;;;1.02;0.40;;;;;;;3.82;76.75;101530.03;4899431;29;20041;-85
2023/04/02 09:21:37;;;;;;;2.38;0.50;;;;;;;3.89;77.15;101528.53;4873925;29;20044;-85
2023/04/02 09:24:05;;;;;;;1.75;1.23;;;;;;;4.01;76.68;101534.09;4850262;29;20076;-86
2023/04/02 09:26:34;;;;;;;2.75;0.73;;;;;;;4.05;76.32;101533.34;4871317;29;20171;-86
2023/04/02 09:29:37;;;;;;;1.77;1.33;;;;;;;4.12;75.76;101545.69;4886148;29;20059;-83
2023/04/02 09:32:23;;;;;;;6.10;0.60;;;;;;;4.10;75.45;101536.97;4885851;29;20068;-83
2023/04/02 09:34:50;;;;;;;4.13;1.63;;;;;;;4.20;76.20;101551.13;4890171;29;20060;-84
2023/04/02 09:37:21;;;;;;;12.70;3.88;;;;;;;4.46;76.63;101556.25;4872938;29;20052;-86
2023/04/02 09:39:51;;;;;;;1.02;1.00;;;;;;;4.63;75.53;101562.81;4873690;29;20063;-86
2023/04/02 09:42:37;;;;;;;1.10;0.50;;;;;;;4.72;73.82;101556.13;4887322;29;20067;-85
2023/04/02 09:45:17;;;;;;;1.40;0.45;;;;;;;4.74;72.96;101562.25;4874528;29;20059;-85
2023/04/02 09:47:43;;;;;;;1.70;0.60;;;;;;;4.62;72.37;101566.22;4901060;29;20056;-84
2023/04/02 09:50:32;;;;;;;5.18;0.93;;;;;;;4.54;72.55;101574.63;4876788;29;20076;-83
2023/04/02 09:53:35;;;;;;;4.82;0.90;;;;;;;4.50;72.81;101588.31;4874123;29;20084;-85
2023/04/02 09:56:20;;;;;;;2.63;0.70;;;;;;;4.54;73.40;101582.41;4886177;29;20219;-84
2023/04/02 09:59:03;;;;;;;1.50;0.63;;;;;;;4.62;73.46;101589.56;4886688;29;20049;-84
2023/04/02 10:01:34;;;;;;;1.90;0.60;;;;;;;4.70;72.87;101596.72;4899902;29;20052;-85
2023/04/02 10:04:03;;;;;;;2.25;0.93;;;;;;;4.85;73.18;101604.06;4884672;29;20115;-85
2023/04/02 10:06:32;;;;;;;2.25;1.25;;;;;;;4.87;71.34;101603.28;4872100;29;20083;-85
2023/04/02 10:09:29;;;;;;;0.80;0.80;;;;;;;4.92;71.38;101609.47;4871586;29;20061;-85
2023/04/02 10:11:58;;;;;;;3.88;1.02;;;;;;;4.90;71.31;101618.97;4872544;29;20104;-85
2023/04/02 10:14:47;;;;;;;1.83;0.70;;;;;;;4.91;69.90;101620.69;4883928;29;20045;-84
2023/04/02 10:17:31;;;;;;;2.65;0.90;;;;;;;4.95;69.35;101627.75;4871930;29;20630;-85
2023/04/02 10:20:11;;;;;;;2.55;0.77;;;;;;;4.95;69.45;101629.44;4887662;29;20051;-86
2023/04/02 10:22:46;;;;;;;1.52;0.60;;;;;;;5.04;68.69;101631.44;4884864;29;20047;-86
2023/04/02 10:25:17;;;;;;;2.58;0.60;;;;;;;5.19;68.30;101629.31;4889188;29;20135;-84
2023/04/02 10:28:17;;;;;;;1.95;1.00;;;;;;;5.22;68.85;101629.38;4889483;29;20045;-85
2023/04/02 10:31:05;;;;;;;2.78;0.85;;;;;;;5.26;68.33;101627.75;4900124;29;20143;-87
2023/04/02 10:33:37;;;;;;;1.67;0.60;;;;;;;5.41;68.96;101632.50;4870318;29;20060;-86
2023/04/02 10:36:51;;;;;;;1.00;0.80;;;;;;;5.55;67.67;101640.69;4871997;29;20049;-85
2023/04/02 10:39:33;;;;;;;1.40;0.60;;;;;;;5.55;65.93;101638.94;4883810;29;20051;-86
2023/04/02 10:42:30;;;;;;;1.00;0.35;;;;;;;5.90;65.75;101632.94;4883894;29;20051;-85
2023/04/02 10:45:40;;;;;;;0.80;0.50;;;;;;;6.16;63.13;101632.78;4887654;29;20055;-84
2023/04/02 10:48:32;;;;;;;3.90;1.33;;;;;;;6.25;63.01;101640.81;4902324;29;20064;-86
2023/04/02 10:51:15;;;;;;;1.60;0.60;;;;;;;6.26;63.43;101640.84;4867496;29;20445;-84
2023/04/02 10:53:57;;;;;;;4.03;1.13;;;;;;;6.43;62.33;101649.03;4884992;29;20155;-84
2023/04/02 10:56:27;;;;;;;2.47;0.75;;;;;;;6.67;61.58;101645.25;4887921;29;20064;-84
2023/04/02 10:59:09;;;;;;;0.98;0.50;;;;;;;7.11;61.10;101660.13;4878563;29;20076;-84
2023/04/02 11:01:37;;;;;;;3.15;1.30;;;;;;;7.08;60.21;101653.13;4884913;29;20415;-85
2023/04/02 11:04:16;;;;;;;2.58;0.65;;;;;;;6.91;60.65;101660.56;4885731;29;20120;-84
2023/04/02 11:06:54;;;;;;;1.23;0.90;;;;;;;7.04;62.10;101666.94;4871273;29;20059;-86
2023/04/02 11:09:30;;;;;;;1.80;0.50;;;;;;;7.09;62.36;101665.31;4892060;29;20045;-85
2023/04/02 11:12:00;;;;;;;4.93;1.02;;;;;;;6.75;60.33;101664.56;4886351;29;20604;-85
2023/04/02 11:14:31;;;;;;;3.58;0.82;;;;;;;6.59;60.84;101671.09;4875920;29;20061;-83
2023/04/02 11:17:03;;;;;;;1.33;1.10;;;;;;;7.16;60.61;101668.91;4891305;29;20064;-86
2023/04/02 11:19:33;;;;;;;0.98;0.60;;;;;;;7.53;58.26;101669.66;4890731;29;20128;-85
2023/04/02 11:22:15;;;;;;;0.93;0.93;;;;;;;7.62;56.85;101671.56;4875708;29;20045;-84
2023/04/02 11:24:48;;;;;;;0.88;0.70;;;;;;;8.27;54.07;101673.63;4874178;29;20045;-85
2023/04/02 11:27:20;;;;;;;;;;;;;;;8.10;53.75;101668.13;4892458;29;20104;-85
2023/04/02 11:30:02;;;;;;;1.90;0.57;;;;;;;7.89;54.60;101672.97;4879514;29;19942;-84
2023/04/02 11:32:41;;;;;;;2.42;0.60;;;;;;;7.65;55.05;101683.78;4887675;29;20068;-83
2023/04/02 11:35:27;;;;;;;2.30;0.95;;;;;;;7.56;55.50;101672.34;4878126;29;20055;-83
2023/04/02 11:38:22;;;;;;;2.45;1.00;;;;;;;7.99;53.54;101680.13;4889647;29;20131;-87
2023/04/02 11:40:59;;;;;;;2.38;0.90;;;;;;;8.01;53.11;101685.34;4889496;29;20055;-83
2023/04/02 11:43:35;;;;;;;1.35;1.10;;;;;;;8.01;53.46;101686.22;4889007;29;20088;-84
2023/04/02 11:46:32;;;;;;;1.20;0.77;;;;;;;8.09;53.16;101694.19;4889620;29;20064;-85
2023/04/02 11:49:40;;;;;;;3.60;0.82;;;;;;;8.52;52.23;101694.94;4883724;29;20049;-85
2023/04/02 11:52:22;;;;;;;0.77;0.77;;;;;;;10.63;48.81;101689.63;4887978;29;20375;-86
2023/04/02 11:55:26;;;;;;;0.95;0.70;;;;;;;12.99;44.36;101686.75;4889068;29;20645;-83
2023/04/02 11:58:23;;;;;;;2.53;0.60;;;;;;;15.88;37.39;101695.84;4874620;29;20053;-85
2023/04/02 12:01:06;;;;;;;1.10;0.57;;;;;;;17.06;33.30;101683.34;4902171;29;20151;-83
2023/04/02 12:04:11;;;;;;;1.37;0.50;;;;;;;17.26;33.45;101684.72;4887633;29;20483;-85
2023/04/02 12:06:45;;;;;;;1.98;0.73;;;;;;;18.55;32.45;101688.88;4838863;29;20313;-85
2023/04/02 12:09:23;;;;;;;0.75;0.45;;;;;;;19.40;30.51;101686.56;4881264;29;20049;-85
2023/04/02 12:11:53;;;;;;;1.20;0.70;;;;;;;19.87;28.83;101683.41;4876932;29;20051;-85
2023/04/02 12:14:44;;;;;;;1.05;0.43;;;;;;;19.65;27.95;101691.13;4889659;29;20052;-85
2023/04/02 12:17:21;;;;;;;1.10;0.75;;;;;;;19.32;28.53;101684.13;4876547;29;20079;-85
2023/04/02 12:19:51;;;;;;;0.70;0.70;;;;;;;17.93;31.83;101685.06;4894451;29;20049;-84
2023/04/02 12:22:29;;;;;;;0.80;0.38;;;;;;;16.24;32.74;101695.31;4887044;29;20052;-84
2023/04/02 12:25:06;;;;;;;1.30;0.90;;;;;;;15.69;35.08;101696.97;4871573;29;20052;-85
2023/04/02 12:27:36;;;;;;;1.60;0.60;;;;;;;16.38;34.97;101714.47;4885730;29;20056;-85
2023/04/02 12:30:20;;;;;;;1.65;0.60;;;;;;;17.24;30.70;101705.06;4886919;29;20069;-85
2023/04/02 12:32:47;;;;;;;;;;;;;;;17.83;29.64;101702.03;4873644;29;20140;-86
2023/04/02 12:35:34;;;;;;;2.30;0.43;;;;;;;18.92;28.24;101703.81;4876451;29;19927;-85
2023/04/02 12:38:01;;;;;;;1.75;0.38;;;;;;;19.79;27.29;101691.59;4889167;29;20084;-85
2023/04/02 12:40:28;;;;;;;1.95;0.95;;;;;;;19.47;27.60;101689.91;4873955;29;20071;-85
2023/04/02 12:42:56;;;;;;;1.52;0.68;;;;;;;17.15;30.88;101700.81;4902885;29;20060;-86
2023/04/02 12:45:30;;;;;;;0.88;0.50;;;;;;;15.51;33.08;101711.28;4887042;29;20079;-84